Time;durP1;ratioP1;P1;durP2;ratioP2;P2;SDS_P1;SDS_P2;PMS_P1;PMS_P2;Temp;Humidity;BMP_temperature;BMP_pressure;BME280_temperature;BME280_humidity;BME280_pressure;Samples;Min_cycle;Max_cycle;Signal;HPM_P1;HPM_P2
2024/03/10 00:01:30;;;;;;;18.13;10.43;;;20.90;55.90;;;;;;5073503;28;20527;-70
2024/03/10 00:03:56;;;;;;;14.97;10.10;;;21.00;55.50;;;;;;5074248;28;20463;-69
2024/03/10 00:06:21;;;;;;;17.73;10.10;;;21.00;55.50;;;;;;5074172;28;20416;-69
2024/03/10 00:08:47;;;;;;;17.10;10.47;;;21.00;55.50;;;;;;5074206;28;20413;-69
2024/03/10 00:11:14;;;;;;;16.70;11.47;;;20.90;55.40;;;;;;5072855;28;20193;-70
2024/03/10 00:13:41;;;;;;;20.73;11.07;;;20.90;55.40;;;;;;5074208;28;20780;-70
2024/03/10 00:16:09;;;;;;;17.27;10.63;;;20.90;55.30;;;;;;5074452;28;20563;-69
2024/03/10 00:18:37;;;;;;;17.00;10.90;;;20.90;55.40;;;;;;5074003;28;20923;-69
2024/03/10 00:21:04;;;;;;;17.23;10.17;;;20.90;55.40;;;;;;5074183;28;20457;-69
2024/03/10 00:23:30;;;;;;;15.57;10.97;;;21.00;55.40;;;;;;5073345;28;20429;-69
2024/03/10 00:25:56;;;;;;;16.13;10.30;;;20.90;55.30;;;;;;5073945;28;20764;-69
2024/03/10 00:28:21;;;;;;;16.93;10.97;;;20.90;55.30;;;;;;5073882;28;20427;-68
2024/03/10 00:30:48;;;;;;;16.07;10.37;;;20.90;55.40;;;;;;5073723;28;20220;-70
2024/03/10 00:33:14;;;;;;;18.80;10.23;;;20.90;55.40;;;;;;5073966;28;20563;-70
2024/03/10 00:35:40;;;;;;;18.70;11.90;;;20.90;55.30;;;;;;5073592;28;20908;-69
2024/03/10 00:38:05;;;;;;;16.33;10.20;;;20.90;55.40;;;;;;5073736;28;20415;-70
2024/03/10 00:40:31;;;;;;;15.33;9.80;;;20.90;55.30;;;;;;5074023;28;20194;-70
2024/03/10 00:42:56;;;;;;;18.77;10.97;;;20.90;55.40;;;;;;5074194;28;20170;-70
2024/03/10 00:45:25;;;;;;;18.67;12.07;;;20.90;55.40;;;;;;5074146;28;20273;-70
2024/03/10 00:47:54;;;;;;;17.20;10.50;;;20.90;55.40;;;;;;5073532;28;20170;-71
2024/03/10 00:50:20;;;;;;;20.03;11.40;;;20.90;55.40;;;;;;5073598;28;20431;-70
2024/03/10 00:52:46;;;;;;;23.60;12.60;;;20.90;55.40;;;;;;5073667;28;20495;-69
2024/03/10 00:55:11;;;;;;;17.63;11.03;;;20.90;55.40;;;;;;5073233;28;20273;-70
2024/03/10 00:57:38;;;;;;;17.67;9.90;;;20.90;55.50;;;;;;5072422;28;20657;-69
2024/03/10 01:00:07;;;;;;;16.77;10.87;;;20.90;55.40;;;;;;5044560;28;20248;-70
2024/03/10 01:02:32;;;;;;;16.87;11.30;;;20.90;55.40;;;;;;5053325;28;20968;-69
2024/03/10 01:04:58;;;;;;;14.20;10.03;;;20.90;55.40;;;;;;5053214;28;20472;-68
2024/03/10 01:07:23;;;;;;;20.80;11.07;;;20.90;55.50;;;;;;5057308;28;20186;-70
2024/03/10 01:09:49;;;;;;;21.17;11.67;;;20.90;55.50;;;;;;5053299;28;20542;-69
2024/03/10 01:12:14;;;;;;;14.33;9.50;;;20.90;55.50;;;;;;5050710;28;20245;-70
2024/03/10 01:14:40;;;;;;;15.97;11.40;;;20.90;55.50;;;;;;5052821;28;20286;-70
2024/03/10 01:17:08;;;;;;;15.10;9.80;;;20.90;55.50;;;;;;5053197;28;20175;-69
2024/03/10 01:19:34;;;;;;;15.47;10.33;;;20.90;55.50;;;;;;5053201;28;20233;-69
2024/03/10 01:22:00;;;;;;;15.27;10.73;;;20.90;55.50;;;;;;5052724;28;20867;-70
2024/03/10 01:24:25;;;;;;;17.30;10.60;;;20.80;55.40;;;;;;5052612;28;20429;-70
2024/03/10 01:26:51;;;;;;;16.37;10.73;;;20.80;55.40;;;;;;5052589;28;20431;-70
2024/03/10 01:29:17;;;;;;;16.80;9.67;;;20.90;55.50;;;;;;5052740;28;20638;-69
2024/03/10 01:31:44;;;;;;;15.30;10.90;;;20.80;55.40;;;;;;5052700;28;20507;-69
2024/03/10 01:34:10;;;;;;;18.53;11.80;;;20.80;55.40;;;;;;5052669;28;20440;-69
2024/03/10 01:36:36;;;;;;;16.60;10.50;;;20.80;55.40;;;;;;5052497;28;20410;-69
2024/03/10 01:39:02;;;;;;;18.07;11.30;;;20.80;55.40;;;;;;5052808;28;20265;-69
2024/03/10 01:41:27;;;;;;;16.83;11.10;;;20.80;55.40;;;;;;5052299;28;20642;-68
2024/03/10 01:43:53;;;;;;;16.40;9.93;;;20.80;55.40;;;;;;5052411;28;20202;-69
2024/03/10 01:46:21;;;;;;;13.77;9.43;;;20.90;55.50;;;;;;5052861;28;20179;-70
2024/03/10 01:48:47;;;;;;;14.80;10.73;;;20.80;55.40;;;;;;5052367;28;20183;-69
2024/03/10 01:51:13;;;;;;;15.70;10.43;;;20.80;55.40;;;;;;5052700;28;20424;-68
2024/03/10 01:53:41;;;;;;;16.10;9.83;;;20.80;55.50;;;;;;5052513;28;20944;-70
2024/03/10 01:56:07;;;;;;;13.90;9.87;;;20.80;55.50;;;;;;5052454;28;20409;-69
2024/03/10 01:58:36;;;;;;;16.33;10.63;;;20.80;55.50;;;;;;5052303;28;20417;-68
2024/03/10 02:01:03;;;;;;;13.27;9.33;;;20.80;55.50;;;;;;5052334;28;20910;-70
2024/03/10 02:03:33;;;;;;;14.27;9.20;;;20.80;55.50;;;;;;5052553;28;20429;-69
2024/03/10 02:05:58;;;;;;;15.00;10.80;;;20.80;55.50;;;;;;5052267;28;20455;-70
2024/03/10 02:08:26;;;;;;;12.57;9.23;;;20.80;56.10;;;;;;5052093;28;20409;-70
2024/03/10 02:10:52;;;;;;;13.17;9.33;;;20.80;55.50;;;;;;5050443;28;20209;-70
2024/03/10 02:13:19;;;;;;;14.47;9.50;;;20.80;55.50;;;;;;5052044;28;20479;-70
2024/03/10 02:15:59;;;;;;;17.30;9.93;;;20.80;55.50;;;;;;5041819;28;20441;-70
2024/03/10 02:18:26;;;;;;;17.60;10.80;;;20.80;55.50;;;;;;5045681;28;20826;-69
2024/03/10 02:20:52;;;;;;;16.67;10.27;;;20.80;55.50;;;;;;5051122;28;20461;-70
2024/03/10 02:23:21;;;;;;;15.70;9.47;;;20.80;55.50;;;;;;5050547;28;20877;-70
2024/03/10 02:25:50;;;;;;;12.90;9.07;;;20.80;55.50;;;;;;5051812;28;20450;-70
2024/03/10 02:28:36;;;;;;;13.97;9.33;;;20.80;55.50;;;;;;5050022;28;20417;-70
2024/03/10 02:47:35;;;;;;;15.27;8.57;;;20.80;55.60;;;;;;5051732;28;20388;-71
2024/03/10 02:50:05;;;;;;;15.03;9.70;;;20.70;56.10;;;;;;5051759;28;20439;-70
2024/03/10 02:52:34;;;;;;;18.47;9.50;;;20.80;55.60;;;;;;5051769;28;20560;-70
2024/03/10 02:55:01;;;;;;;16.10;8.87;;;20.80;55.60;;;;;;5051701;28;20429;-69
2024/03/10 02:57:33;;;;;;;13.33;9.70;;;20.80;55.60;;;;;;5051660;28;20450;-71
2024/03/10 02:59:59;;;;;;;17.87;9.33;;;20.80;55.60;;;;;;5052081;28;20764;-70
2024/03/10 03:02:25;;;;;;;15.20;9.33;;;20.80;55.60;;;;;;5052058;28;20468;-70
2024/03/10 03:04:51;;;;;;;14.20;8.77;;;20.80;55.60;;;;;;5051922;28;20806;-70
2024/03/10 03:07:18;;;;;;;13.90;10.43;;;20.80;55.60;;;;;;5050738;28;20417;-69
2024/03/10 03:09:47;;;;;;;14.77;9.50;;;20.80;55.60;;;;;;5052366;28;20405;-70
2024/03/10 03:12:13;;;;;;;14.53;8.40;;;20.80;55.60;;;;;;5052035;28;20471;-70
2024/03/10 03:14:39;;;;;;;16.40;10.20;;;20.80;55.50;;;;;;5051446;28;20429;-69
2024/03/10 03:17:05;;;;;;;11.23;7.70;;;20.80;55.50;;;;;;5051790;28;20422;-70
2024/03/10 03:19:32;;;;;;;13.47;9.17;;;20.80;55.60;;;;;;5050473;28;20445;-70
2024/03/10 03:22:00;;;;;;;12.20;9.60;;;20.80;55.60;;;;;;5051583;28;20199;-70
2024/03/10 03:24:25;;;;;;;17.80;8.67;;;20.80;55.50;;;;;;5051730;28;20421;-70
2024/03/10 03:26:53;;;;;;;11.03;8.40;;;20.70;55.50;;;;;;5051571;28;20436;-69
2024/03/10 03:29:19;;;;;;;12.00;9.30;;;20.80;55.60;;;;;;5046699;28;20175;-70
2024/03/10 03:31:45;;;;;;;11.17;8.00;;;20.80;55.60;;;;;;5046124;28;20471;-70
2024/03/10 03:34:11;;;;;;;13.57;8.90;;;20.70;55.50;;;;;;5051556;28;21011;-71
2024/03/10 03:36:36;;;;;;;14.30;9.17;;;20.80;55.60;;;;;;5053233;28;20847;-70
2024/03/10 03:39:05;;;;;;;14.20;9.03;;;20.70;55.50;;;;;;5053684;28;20198;-70
2024/03/10 03:41:31;;;;;;;15.43;10.00;;;20.70;55.50;;;;;;5054664;28;20234;-70
2024/03/10 03:43:57;;;;;;;11.63;8.30;;;20.80;55.60;;;;;;5054810;28;20475;-70
2024/03/10 03:46:22;;;;;;;14.70;8.70;;;20.70;55.50;;;;;;5053582;28;20182;-70
2024/03/10 03:48:48;;;;;;;10.97;7.27;;;20.70;55.50;;;;;;5055292;28;20225;-70
2024/03/10 03:51:13;;;;;;;16.90;8.70;;;20.70;55.50;;;;;;5055583;28;20587;-70
2024/03/10 03:53:39;;;;;;;10.90;8.23;;;20.70;55.50;;;;;;5054923;28;20218;-70
2024/03/10 03:56:08;;;;;;;13.20;8.73;;;20.70;55.50;;;;;;5054920;28;20593;-70
2024/03/10 03:58:34;;;;;;;12.97;8.43;;;20.70;55.50;;;;;;5055007;28;20202;-71
2024/03/10 04:00:59;;;;;;;11.27;7.70;;;20.70;55.50;;;;;;5054884;28;20452;-70
2024/03/10 04:03:25;;;;;;;11.57;8.37;;;20.70;55.50;;;;;;5054361;28;20460;-70
2024/03/10 04:05:52;;;;;;;12.30;7.93;;;20.70;55.50;;;;;;5054665;28;20199;-71
2024/03/10 04:08:19;;;;;;;12.40;7.60;;;20.70;55.50;;;;;;5054876;28;20209;-68
2024/03/10 04:10:45;;;;;;;10.50;7.67;;;20.70;55.50;;;;;;5054900;28;20445;-71
2024/03/10 04:13:10;;;;;;;13.17;8.40;;;20.70;55.50;;;;;;5054342;28;20456;-70
2024/03/10 04:15:36;;;;;;;13.20;8.70;;;20.70;55.50;;;;;;5054597;28;20182;-70
2024/03/10 04:18:06;;;;;;;11.80;7.53;;;20.70;55.50;;;;;;5054471;28;20171;-70
2024/03/10 04:20:33;;;;;;;9.57;7.43;;;20.70;55.50;;;;;;5054910;28;20248;-70
2024/03/10 04:22:59;;;;;;;12.07;8.50;;;20.70;55.50;;;;;;5054378;28;20413;-70
2024/03/10 04:25:25;;;;;;;11.70;7.87;;;20.70;55.50;;;;;;5054160;28;20495;-71
2024/03/10 04:27:52;;;;;;;10.87;8.57;;;20.70;56.10;;;;;;5054206;28;20453;-70
2024/03/10 04:30:19;;;;;;;13.60;9.20;;;20.70;55.50;;;;;;5054328;28;20406;-71
2024/03/10 04:32:45;;;;;;;12.97;8.40;;;20.70;55.50;;;;;;5054220;28;20410;-70
2024/03/10 04:35:11;;;;;;;12.57;8.77;;;20.70;55.50;;;;;;5054211;28;20440;-70
2024/03/10 04:37:37;;;;;;;13.97;7.90;;;20.70;55.50;;;;;;5054052;28;20175;-69
2024/03/10 04:40:09;;;;;;;10.93;8.30;;;20.70;55.50;;;;;;5054180;28;20412;-71
2024/03/10 04:42:35;;;;;;;10.60;7.23;;;20.70;55.50;;;;;;5054159;28;20464;-70
2024/03/10 04:45:00;;;;;;;8.73;7.47;;;20.70;55.50;;;;;;5054114;28;20429;-71
2024/03/10 04:47:26;;;;;;;10.87;7.60;;;20.70;55.50;;;;;;5053146;28;20171;-70
2024/03/10 04:49:52;;;;;;;12.10;7.50;;;20.70;55.50;;;;;;5053838;28;20717;-70
2024/03/10 04:52:17;;;;;;;10.93;7.20;;;20.70;55.50;;;;;;5053766;28;20175;-70
2024/03/10 04:54:45;;;;;;;11.83;7.40;;;20.70;55.50;;;;;;5053714;28;20191;-70
2024/03/10 04:57:11;;;;;;;11.40;8.20;;;20.70;55.50;;;;;;5053810;28;20210;-70
2024/03/10 04:59:37;;;;;;;12.47;8.13;;;20.70;55.50;;;;;;5053726;28;20439;-70
2024/03/10 05:02:02;;;;;;;12.47;7.90;;;20.70;55.50;;;;;;5053590;28;20273;-71
2024/03/10 05:04:28;;;;;;;11.53;7.50;;;20.70;55.50;;;;;;5053647;28;20429;-70
2024/03/10 05:06:53;;;;;;;10.53;7.57;;;20.70;55.50;;;;;;5053729;28;20170;-68
2024/03/10 05:09:19;;;;;;;12.57;8.00;;;20.70;55.50;;;;;;5053582;28;20172;-68
2024/03/10 05:11:45;;;;;;;9.50;6.47;;;20.70;55.50;;;;;;5053617;28;20254;-68
2024/03/10 05:14:12;;;;;;;10.43;6.97;;;20.70;55.50;;;;;;5051999;28;20203;-68
2024/03/10 05:16:38;;;;;;;10.33;6.50;;;20.70;55.50;;;;;;5053407;28;20179;-67
2024/03/10 05:19:07;;;;;;;11.03;6.93;;;20.60;55.40;;;;;;5053441;28;20433;-67
2024/03/10 05:21:32;;;;;;;10.00;8.17;;;20.70;55.50;;;;;;5053039;28;20198;-68
2024/03/10 05:23:58;;;;;;;10.13;7.23;;;20.70;55.50;;;;;;5052954;28;20441;-67
2024/03/10 05:26:23;;;;;;;9.90;7.17;;;20.60;55.40;;;;;;5053167;28;20266;-69
2024/03/10 05:28:49;;;;;;;12.30;8.07;;;20.70;55.50;;;;;;5053325;28;20179;-68
2024/03/10 05:31:31;;;;;;;9.53;7.93;;;20.60;55.40;;;;;;5053360;28;20174;-68
2024/03/10 05:33:59;;;;;;;10.60;6.80;;;20.70;55.50;;;;;;5053040;28;20199;-68
2024/03/10 05:36:28;;;;;;;8.53;6.63;;;20.60;55.40;;;;;;5052951;28;20936;-68
2024/03/10 05:38:54;;;;;;;13.07;7.40;;;20.60;55.40;;;;;;5053119;28;20559;-68
2024/03/10 05:41:20;;;;;;;12.43;7.87;;;20.60;55.40;;;;;;5053209;28;20558;-67
2024/03/10 05:43:47;;;;;;;10.13;7.17;;;20.60;55.40;;;;;;5053099;28;20191;-68
2024/03/10 05:46:12;;;;;;;10.60;6.87;;;20.60;55.40;;;;;;5052955;28;20171;-68
2024/03/10 05:48:40;;;;;;;11.80;7.53;;;20.60;55.40;;;;;;5053026;28;20433;-67
2024/03/10 05:51:06;;;;;;;8.67;7.03;;;20.60;55.40;;;;;;5052962;28;20937;-68
2024/03/10 05:53:32;;;;;;;8.53;6.87;;;20.60;55.40;;;;;;5052820;28;20865;-66
2024/03/10 05:55:58;;;;;;;10.40;7.40;;;20.60;55.40;;;;;;5052763;28;20459;-68
2024/03/10 05:58:24;;;;;;;8.90;7.10;;;20.60;55.40;;;;;;5052249;28;20183;-68
2024/03/10 06:00:50;;;;;;;9.77;7.10;;;20.60;55.40;;;;;;5053095;28;20479;-67
2024/03/10 06:03:15;;;;;;;10.67;7.23;;;20.60;55.40;;;;;;5052701;28;20696;-68
2024/03/10 06:05:41;;;;;;;10.20;7.00;;;20.60;55.40;;;;;;5052644;28;20213;-67
2024/03/10 06:08:10;;;;;;;8.80;6.70;;;20.60;55.50;;;;;;5052465;28;20995;-67
2024/03/10 06:10:38;;;;;;;9.10;6.90;;;20.60;55.40;;;;;;5051952;28;20408;-68
2024/03/10 06:13:04;;;;;;;9.27;7.37;;;20.60;55.40;;;;;;5052257;28;20409;-68
2024/03/10 06:15:29;;;;;;;8.27;5.90;;;20.60;55.40;;;;;;5045367;28;20492;-67
2024/03/10 06:18:15;;;;;;;8.63;6.70;;;20.60;55.40;;;;;;5045924;28;20183;-68
2024/03/10 06:26:22;;;;;;;10.83;7.57;;;20.60;55.40;;;;;;5056439;28;20422;-72
2024/03/10 06:28:51;;;;;;;9.00;6.40;;;20.60;55.40;;;;;;5050182;28;20501;-71
2024/03/10 06:31:18;;;;;;;9.03;6.30;;;20.60;55.40;;;;;;5052509;28;20410;-70
2024/03/10 06:33:44;;;;;;;11.63;7.10;;;20.70;55.50;;;;;;5052340;28;20570;-69
2024/03/10 06:36:11;;;;;;;9.10;6.87;;;20.70;55.50;;;;;;5050484;28;20449;-69
2024/03/10 06:38:41;;;;;;;8.83;6.70;;;20.70;55.50;;;;;;5052350;28;20409;-71
2024/03/10 06:41:07;;;;;;;7.73;6.33;;;20.70;55.40;;;;;;5051924;28;20453;-70
2024/03/10 06:43:37;;;;;;;10.27;6.97;;;20.70;55.40;;;;;;5051790;28;20425;-70
2024/03/10 06:46:03;;;;;;;7.90;5.87;;;20.70;55.40;;;;;;5052010;28;20936;-70
2024/03/10 06:48:30;;;;;;;8.47;6.60;;;20.70;55.40;;;;;;5051983;28;20414;-67
2024/03/10 06:50:56;;;;;;;8.70;6.87;;;20.70;55.40;;;;;;5051913;28;20436;-68
2024/03/10 06:53:22;;;;;;;8.53;6.50;;;20.70;55.50;;;;;;5052095;28;20425;-67
2024/03/10 06:55:47;;;;;;;8.17;6.77;;;20.70;55.40;;;;;;5051700;28;20178;-69
2024/03/10 06:58:13;;;;;;;9.17;6.20;;;20.70;55.40;;;;;;5050480;28;20179;-71
2024/03/10 07:00:41;;;;;;;8.87;6.17;;;20.80;55.40;;;;;;5051643;28;20183;-70
2024/03/10 07:03:07;;;;;;;9.30;6.70;;;20.80;55.40;;;;;;5051840;28;20186;-69
2024/03/10 07:05:33;;;;;;;8.47;5.90;;;20.80;55.40;;;;;;5051153;28;21083;-71
2024/03/10 07:08:00;;;;;;;7.23;5.70;;;20.80;55.30;;;;;;5051530;28;20642;-70
2024/03/10 07:10:27;;;;;;;9.00;6.53;;;20.80;55.30;;;;;;5054248;28;20218;-69
2024/03/10 07:12:52;;;;;;;8.10;6.23;;;20.80;55.30;;;;;;5055567;28;20491;-70
2024/03/10 07:15:18;;;;;;;7.90;6.00;;;20.90;55.30;;;;;;5055413;28;20441;-70
2024/03/10 07:17:44;;;;;;;8.97;6.10;;;20.90;55.30;;;;;;5055330;28;20179;-70
2024/03/10 07:20:10;;;;;;;9.90;6.10;;;20.90;55.30;;;;;;5054281;28;20183;-70
2024/03/10 07:22:37;;;;;;;9.87;6.10;;;20.90;55.30;;;;;;5055265;28;20205;-70
2024/03/10 07:25:05;;;;;;;9.60;6.37;;;20.90;55.30;;;;;;5055724;28;20816;-70
2024/03/10 07:27:31;;;;;;;9.27;6.60;;;20.90;55.30;;;;;;5054999;28;20546;-70
2024/03/10 07:29:58;;;;;;;8.60;6.23;;;20.90;55.20;;;;;;5055451;28;20432;-70
2024/03/10 07:32:24;;;;;;;8.07;6.40;;;20.90;55.20;;;;;;5055377;28;20425;-72
2024/03/10 07:34:50;;;;;;;6.40;5.50;;;20.90;55.20;;;;;;5055349;28;20433;-70
2024/03/10 07:37:16;;;;;;;8.63;6.00;;;20.90;55.20;;;;;;5055288;28;20413;-68
2024/03/10 07:39:41;;;;;;;8.53;5.57;;;21.00;55.30;;;;;;5055091;28;20654;-67
2024/03/10 07:42:07;;;;;;;10.37;6.03;;;21.00;55.30;;;;;;5055151;28;20729;-68
2024/03/10 07:44:32;;;;;;;8.30;6.47;;;21.00;55.30;;;;;;5054958;28;20191;-66
2024/03/10 07:46:58;;;;;;;7.73;6.30;;;21.00;55.30;;;;;;5055139;28;20630;-68
2024/03/10 07:49:27;;;;;;;8.50;6.60;;;21.00;55.30;;;;;;5055017;28;20653;-67
2024/03/10 07:51:53;;;;;;;7.13;6.03;;;21.00;55.30;;;;;;5054688;28;20768;-68
2024/03/10 07:54:18;;;;;;;7.33;6.33;;;21.00;55.20;;;;;;5054676;28;20516;-68
2024/03/10 07:56:44;;;;;;;7.90;5.73;;;21.00;55.30;;;;;;5054832;28;20179;-67
2024/03/10 07:59:11;;;;;;;5.67;5.10;;;21.00;55.30;;;;;;5055219;28;20642;-66
2024/03/10 08:01:37;;;;;;;7.00;5.40;;;21.00;55.80;;;;;;5054872;28;20662;-68
2024/03/10 08:04:03;;;;;;;7.63;6.03;;;21.00;55.20;;;;;;5055407;28;20429;-68
2024/03/10 08:06:28;;;;;;;5.80;5.17;;;21.00;55.20;;;;;;5055409;28;20405;-68
2024/03/10 08:08:54;;;;;;;9.70;5.90;;;21.00;55.20;;;;;;5054789;28;20178;-69
2024/03/10 08:11:22;;;;;;;6.80;5.47;;;21.10;55.30;;;;;;5054694;28;20189;-68
2024/03/10 08:13:48;;;;;;;6.90;5.00;;;21.00;55.20;;;;;;5054673;28;20202;-68
2024/03/10 08:16:13;;;;;;;6.43;5.50;;;21.00;55.20;;;;;;5054407;28;20920;-67
2024/03/10 08:18:43;;;;;;;8.23;6.10;;;21.10;55.30;;;;;;5054698;28;20425;-68
2024/03/10 08:21:10;;;;;;;7.37;5.60;;;21.10;55.20;;;;;;5053659;28;20199;-70
2024/03/10 08:23:35;;;;;;;8.17;6.00;;;21.10;55.20;;;;;;5054495;28;20421;-70
2024/03/10 08:26:01;;;;;;;7.70;5.40;;;21.10;55.20;;;;;;5055246;28;20409;-70
2024/03/10 08:28:27;;;;;;;7.27;5.63;;;21.10;55.20;;;;;;5055164;28;20246;-71
2024/03/10 08:30:54;;;;;;;8.10;5.93;;;21.10;55.30;;;;;;5055020;28;20175;-70
2024/03/10 08:33:19;;;;;;;7.67;5.73;;;21.10;55.30;;;;;;5050885;28;20433;-70
2024/03/10 08:35:46;;;;;;;11.90;5.60;;;21.10;55.30;;;;;;5050144;28;20456;-70
2024/03/10 08:38:13;;;;;;;7.63;5.90;;;21.10;55.40;;;;;;5054391;28;20175;-71
2024/03/10 08:40:38;;;;;;;8.37;6.53;;;21.10;55.40;;;;;;5046725;28;20425;-70
2024/03/10 08:43:04;;;;;;;8.57;5.57;;;21.10;55.40;;;;;;5053797;28;20471;-70
2024/03/10 08:45:31;;;;;;;7.50;5.40;;;21.10;55.40;;;;;;5050162;28;20195;-70
2024/03/10 08:47:57;;;;;;;8.73;5.77;;;21.10;55.40;;;;;;5043146;28;20160;-71
2024/03/10 08:50:22;;;;;;;8.67;5.90;;;21.10;55.30;;;;;;5042366;28;20441;-71
2024/03/10 08:52:48;;;;;;;10.77;6.03;;;21.10;55.30;;;;;;5044096;28;20249;-70
2024/03/10 08:55:15;;;;;;;9.70;5.87;;;21.10;55.30;;;;;;5044388;28;20670;-71
2024/03/10 08:57:41;;;;;;;7.10;5.10;;;21.10;55.30;;;;;;5042935;28;20179;-71
2024/03/10 09:00:11;;;;;;;9.03;6.30;;;21.10;55.30;;;;;;5044674;28;20405;-70
2024/03/10 09:02:38;;;;;;;6.80;5.10;;;21.10;55.30;;;;;;5044313;28;20446;-67
2024/03/10 09:05:07;;;;;;;9.50;6.27;;;21.10;55.30;;;;;;5042710;28;20434;-68
2024/03/10 09:07:33;;;;;;;8.90;5.70;;;21.10;55.30;;;;;;5044091;28;20413;-69
2024/03/10 09:09:59;;;;;;;7.77;6.33;;;21.10;55.40;;;;;;5044968;28;20559;-67
2024/03/10 09:12:27;;;;;;;9.20;5.23;;;21.10;55.40;;;;;;5041636;28;20752;-68
2024/03/10 09:14:53;;;;;;;7.00;5.50;;;21.10;55.40;;;;;;5043525;28;20190;-67
2024/03/10 09:17:18;;;;;;;10.60;5.70;;;21.10;55.50;;;;;;5044834;28;20437;-69
2024/03/10 09:19:44;;;;;;;8.37;5.87;;;21.10;55.50;;;;;;5048369;28;20570;-67
2024/03/10 09:22:10;;;;;;;9.33;6.20;;;21.10;55.50;;;;;;5054383;28;20198;-67
2024/03/10 09:24:36;;;;;;;8.93;5.80;;;21.10;55.50;;;;;;5054286;28;20183;-69
2024/03/10 09:27:03;;;;;;;9.50;5.70;;;21.10;55.50;;;;;;5053683;28;20171;-67
2024/03/10 09:29:29;;;;;;;8.67;5.80;;;21.10;55.50;;;;;;5053734;28;20597;-68
2024/03/10 09:31:56;;;;;;;9.20;5.53;;;21.10;55.50;;;;;;5054159;28;20409;-68
2024/03/10 09:34:23;;;;;;;9.40;6.17;;;21.10;55.50;;;;;;5053873;28;20429;-67
2024/03/10 09:36:51;;;;;;;7.90;5.33;;;21.10;55.50;;;;;;5054025;28;20410;-68
2024/03/10 09:39:17;;;;;;;7.73;6.03;;;21.10;55.50;;;;;;5054027;28;20413;-68
2024/03/10 09:41:43;;;;;;;7.00;5.40;;;21.10;55.50;;;;;;5054215;28;20453;-68
2024/03/10 09:44:20;;;;;;;7.70;6.10;;;21.10;55.50;;;;;;5053535;28;20428;-68
2024/03/10 09:46:50;;;;;;;7.20;5.27;;;21.10;55.50;;;;;;5053701;28;20390;-68
2024/03/10 09:49:20;;;;;;;7.77;5.80;;;21.10;55.50;;;;;;5053439;28;20393;-67
2024/03/10 09:51:49;;;;;;;9.10;6.10;;;21.10;55.50;;;;;;5053523;28;20413;-67
2024/03/10 09:54:19;;;;;;;7.17;5.67;;;21.10;55.50;;;;;;5053444;28;20433;-69
2024/03/10 09:56:50;;;;;;;7.33;5.30;;;21.10;55.50;;;;;;5054636;28;20429;-69
2024/03/10 09:59:23;;;;;;;7.30;5.47;;;21.10;55.50;;;;;;5047567;28;20430;-67
2024/03/10 10:01:50;;;;;;;7.13;6.03;;;21.10;55.50;;;;;;5063894;28;20563;-68
2024/03/10 10:04:19;;;;;;;7.60;5.53;;;21.10;55.60;;;;;;5070028;28;20455;-68
2024/03/10 10:06:46;;;;;;;6.77;5.60;;;21.10;55.50;;;;;;5045687;28;20426;-68
2024/03/10 10:09:11;;;;;;;10.67;5.17;;;21.10;55.50;;;;;;5066010;28;20424;-67
2024/03/10 10:11:38;;;;;;;7.07;5.60;;;21.10;55.50;;;;;;5072456;28;20400;-68
2024/03/10 10:14:22;;;;;;;5.80;4.47;;;21.10;55.50;;;;;;5070583;28;20290;-68
2024/03/10 10:16:55;;;;;;;5.93;4.40;;;21.10;55.50;;;;;;5059248;28;20417;-67
2024/03/10 10:19:22;;;;;;;8.43;5.67;;;21.10;55.50;;;;;;5048580;28;20439;-68
2024/03/10 10:21:48;;;;;;;6.80;5.40;;;21.10;55.60;;;;;;5073444;28;20448;-67
2024/03/10 10:24:15;;;;;;;5.70;4.40;;;21.10;55.60;;;;;;5071055;28;20435;-67
2024/03/10 10:26:41;;;;;;;6.80;5.93;;;21.10;55.60;;;;;;5051880;28;20162;-70
2024/03/10 10:29:09;;;;;;;6.23;4.97;;;21.10;55.60;;;;;;5052307;28;20409;-69
2024/03/10 10:31:39;;;;;;;6.17;5.57;;;21.10;55.60;;;;;;5070611;28;20934;-68
2024/03/10 10:34:06;;;;;;;7.07;5.07;;;21.10;55.60;;;;;;5071245;28;20774;-69
2024/03/10 10:36:35;;;;;;;7.13;5.13;;;21.10;55.60;;;;;;5077170;28;20416;-70
2024/03/10 10:39:08;;;;;;;5.90;4.70;;;21.10;55.60;;;;;;5073077;28;20411;-74
2024/03/10 10:41:34;;;;;;;8.00;4.87;;;21.20;55.70;;;;;;5070664;28;20457;-73
2024/03/10 10:44:00;;;;;;;7.53;4.47;;;21.10;55.60;;;;;;5072517;28;20474;-72
2024/03/10 10:46:27;;;;;;;7.23;4.70;;;21.10;55.60;;;;;;5076118;28;20416;-72
2024/03/10 10:48:55;;;;;;;7.63;5.53;;;21.10;55.60;;;;;;5073755;28;20937;-72
2024/03/10 10:51:20;;;;;;;9.37;5.90;;;21.10;55.60;;;;;;5052376;28;20459;-71
2024/03/10 10:53:46;;;;;;;8.70;4.77;;;21.10;55.60;;;;;;5031687;28;20422;-70
2024/03/10 10:56:12;;;;;;;5.97;4.80;;;21.10;55.60;;;;;;5031797;28;20179;-73
2024/03/10 10:58:38;;;;;;;6.67;4.60;;;21.10;55.60;;;;;;5031462;28;20211;-71
2024/03/10 11:01:04;;;;;;;12.70;5.40;;;21.10;55.60;;;;;;5041392;28;20975;-72
2024/03/10 11:03:39;;;;;;;8.40;5.47;;;21.20;55.80;;;;;;5051715;28;20190;-72
2024/03/10 11:06:15;;;;;;;7.93;4.73;;;21.10;55.70;;;;;;5052387;28;20421;-71
2024/03/10 11:08:42;;;;;;;6.37;4.40;;;21.10;55.70;;;;;;5052021;28;20389;-70
2024/03/10 11:11:09;;;;;;;7.60;4.73;;;21.20;55.80;;;;;;5051655;28;20409;-69
2024/03/10 11:13:38;;;;;;;6.37;4.60;;;21.20;55.80;;;;;;5052882;28;20429;-70
2024/03/10 11:16:09;;;;;;;7.07;4.43;;;21.20;55.80;;;;;;5047818;28;20433;-71
2024/03/10 11:18:36;;;;;;;6.93;4.93;;;21.10;55.70;;;;;;5034304;28;20516;-70
2024/03/10 11:21:05;;;;;;;6.30;4.93;;;21.20;55.80;;;;;;5033446;28;20492;-73
2024/03/10 11:23:44;;;;;;;6.37;4.70;;;21.10;55.70;;;;;;5033984;28;20422;-72
2024/03/10 11:26:21;;;;;;;7.47;5.43;;;21.20;55.80;;;;;;5034499;28;20410;-71
2024/03/10 11:28:52;;;;;;;9.10;4.80;;;21.10;55.70;;;;;;5034053;28;20383;-71
2024/03/10 11:31:25;;;;;;;7.40;4.70;;;21.10;55.70;;;;;;5034650;28;20481;-72
2024/03/10 11:33:52;;;;;;;6.30;4.60;;;21.10;55.70;;;;;;5033818;28;20517;-72
2024/03/10 11:36:22;;;;;;;6.10;4.30;;;21.10;55.70;;;;;;5034889;28;20429;-72
2024/03/10 11:38:49;;;;;;;6.20;4.73;;;21.20;55.80;;;;;;5034580;28;20414;-71
2024/03/10 11:41:15;;;;;;;4.20;3.53;;;21.10;55.70;;;;;;5054111;28;20552;-73
2024/03/10 11:43:42;;;;;;;5.27;4.47;;;21.10;55.70;;;;;;5043892;28;20432;-73
2024/03/10 11:46:24;;;;;;;6.07;4.50;;;21.10;55.80;;;;;;5046102;28;20414;-73
2024/03/10 11:48:55;;;;;;;5.50;4.37;;;21.20;55.80;;;;;;5043807;28;20918;-69
2024/03/10 11:51:28;;;;;;;6.30;4.33;;;21.10;55.70;;;;;;5032386;28;20418;-72
2024/03/10 11:54:03;;;;;;;6.57;4.07;;;21.10;55.70;;;;;;5034303;28;20434;-71
2024/03/10 11:56:32;;;;;;;7.17;4.80;;;21.10;55.70;;;;;;5035265;28;20403;-71
2024/03/10 11:58:57;;;;;;;4.83;4.17;;;21.10;55.70;;;;;;5038117;28;20418;-73
2024/03/10 12:01:26;;;;;;;4.80;4.20;;;21.10;55.70;;;;;;5034267;28;20465;-71
2024/03/10 12:03:56;;;;;;;5.30;4.80;;;21.10;55.70;;;;;;5033358;28;20192;-71
2024/03/10 12:06:23;;;;;;;5.30;4.00;;;21.10;55.80;;;;;;5035011;28;20502;-73
2024/03/10 12:08:49;;;;;;;6.00;4.63;;;21.10;55.80;;;;;;5035099;28;20762;-71
2024/03/10 12:11:15;;;;;;;4.97;3.90;;;21.10;55.80;;;;;;5033320;28;20584;-71
2024/03/10 12:13:50;;;;;;;6.60;4.97;;;21.10;55.80;;;;;;5033174;28;20655;-72
2024/03/10 12:16:16;;;;;;;9.00;4.23;;;21.10;55.80;;;;;;5034347;28;20414;-71
2024/03/10 12:18:42;;;;;;;6.70;4.40;;;21.10;55.80;;;;;;5034628;28;20445;-70
2024/03/10 12:21:15;;;;;;;5.60;3.77;;;21.10;55.80;;;;;;5034847;28;21064;-71
2024/03/10 12:23:45;;;;;;;5.50;4.00;;;21.10;55.90;;;;;;5035100;28;20781;-71
2024/03/10 12:26:12;;;;;;;6.57;4.50;;;21.10;55.90;;;;;;5035886;28;20413;-71
2024/03/10 12:28:48;;;;;;;7.60;4.50;;;21.10;55.90;;;;;;5035293;28;21070;-71
2024/03/10 12:31:15;;;;;;;5.60;4.57;;;21.10;55.90;;;;;;5034614;28;20416;-72
2024/03/10 12:33:44;;;;;;;5.80;4.53;;;21.10;55.90;;;;;;5034798;28;20434;-71
2024/03/10 12:36:10;;;;;;;7.60;4.60;;;21.10;55.90;;;;;;5034228;28;20410;-70
2024/03/10 12:38:45;;;;;;;8.23;4.93;;;21.10;56.40;;;;;;5034649;28;20464;-69
2024/03/10 12:41:13;;;;;;;5.63;5.13;;;21.10;55.90;;;;;;5034113;28;20460;-72
2024/03/10 12:43:45;;;;;;;5.47;4.10;;;21.10;55.90;;;;;;5034361;28;20433;-73
2024/03/10 12:46:21;;;;;;;5.93;4.43;;;21.10;55.90;;;;;;5034602;28;20383;-69
2024/03/10 12:48:47;;;;;;;5.03;4.57;;;21.10;55.90;;;;;;5034821;28;20382;-71
2024/03/10 12:51:17;;;;;;;6.17;4.60;;;21.20;56.10;;;;;;5034563;28;21057;-71
2024/03/10 12:53:42;;;;;;;7.40;4.80;;;21.10;56.00;;;;;;5034636;28;20465;-72
2024/03/10 12:56:09;;;;;;;7.37;4.10;;;21.10;56.10;;;;;;5034051;28;21242;-69
2024/03/10 12:58:36;;;;;;;6.67;4.97;;;21.20;56.20;;;;;;5034051;28;20207;-71
2024/03/10 13:01:01;;;;;;;6.73;4.60;;;21.10;56.10;;;;;;5035036;28;21053;-71
2024/03/10 13:03:28;;;;;;;5.90;4.83;;;21.10;56.10;;;;;;5031653;28;20466;-69